Date,TemperatureHighF,TemperatureAvgF,TemperatureLowF,DewpointHighF,DewpointAvgF,DewpointLowF,HumidityHigh,HumidityAvg,HumidityLow,PressureMaxIn,PressureMinIn,WindSpeedMaxMPH,WindSpeedAvgMPH,GustSpeedMaxMPH,PrecipitationSumIn
2013-10-1,87,68,55,60,55,47,91,64,36,29.97,29.79,7,1,11,0.00
2013-10-2,86,71,53,66,56,46,84,61,43,30.02,29.86,10,2,17,0.00
2013-10-3,83,71,65,68,63,59,93,77,49,29.87,29.76,8,1,11,0.11
2013-10-4,78,69,62,69,64,59,94,84,63,29.90,29.73,19,2,27,1.26
2013-10-5,72,56,47,60,44,37,71,65,48,29.93,29.80,8,2,17,0.00
2013-10-6,50,50,48,46,45,44,88,83,79,29.91,29.76,13,5,21,0.25
2013-10-7,76,56,41,49,43,36,92,68,33,30.03,29.90,9,2,17,0.00
2013-10-8,78,63,46,50,46,42,92,57,32,30.05,29.96,11,3,21,0.00
2013-10-9,77,62,46,53,49,44,95,65,39,30.09,30.01,9,2,14,0.00
2013-10-10,80,63,46,57,49,43,91,64,35,30.06,29.88,11,2,16,0.07
2013-10-11,74,65,56,62,56,50,86,73,62,29.89,29.72,11,3,18,0.00
2013-10-12,69,59,48,52,42,33,77,55,30,30.14,29.84,14,4,19,0.00
2013-10-14,67,61,52,48,42,36,68,49,37,30.24,29.80,14,6,26,0.01
2013-10-15,60,52,47,56,45,40,92,76,64,29.94,29.75,13,4,19,0.33
2013-10-16,52,46,35,44,40,32,94,79,68,30.00,29.93,10,3,19,0.00
2013-10-17,67,49,34,45,38,30,93,69,35,29.95,29.81,11,2,21,0.00
2013-10-18,53,44,37,37,34,30,86,68,45,30.06,29.95,10,2,21,0.00
2013-10-19,61,46,34,41,34,28,83,62,35,29.95,29.77,12,2,17,0.00
2013-10-20,42,39,36,34,32,30,81,77,71,29.84,29.82,0,0,0,0.00
2013-10-21,56,44,32,36,30,23,81,59,40,30.07,29.94,14,3,19,0.00
2013-10-22,44,41,36,38,35,28,86,79,69,30.07,29.85,8,1,12,0.05
2013-10-23,45,38,31,36,31,25,86,77,60,30.14,30.05,7,1,11,0.05
2013-10-24,47,37,28,35,28,22,85,70,52,30.35,30.14,10,2,17,0.00
2013-10-25,60,43,23,35,28,18,86,58,34,30.38,30.01,8,2,19,0.00
2013-10-26,55,44,27,35,30,22,85,59,38,30.14,29.93,14,4,27,0.00
2013-10-27,65,49,26,37,32,21,87,57,31,30.12,29.83,8,2,15,0.00
2013-10-28,58,44,32,40,34,28,85,69,49,30.26,29.97,8,2,14,0.00
2013-10-29,58,48,40,48,40,34,84,74,65,30.25,29.99,8,2,12,0.01
2013-10-30,67,57,52,59,53,48,94,88,71,29.99,29.65,9,2,21,0.81
2013-10-31,53,45,42,51,41,38,93,86,77,29.67,29.45,11,3,17,0.00